sensor_id;sensor_type;location;lat;lon;timestamp;P1;durP1;ratioP1;P2;durP2;ratioP2
56991;SDS011;42885;49.754;18.636;2023-04-03T00:00:42;9.78;;;6.67;;
56991;SDS011;42885;49.754;18.636;2023-04-03T00:03:15;8.63;;;6.70;;
56991;SDS011;42885;49.754;18.636;2023-04-03T00:05:47;8.08;;;5.95;;
56991;SDS011;42885;49.754;18.636;2023-04-03T00:08:18;8.98;;;6.20;;
56991;SDS011;42885;49.754;18.636;2023-04-03T00:10:49;11.43;;;6.35;;
56991;SDS011;42885;49.754;18.636;2023-04-03T00:13:21;8.68;;;6.12;;
56991;SDS011;42885;49.754;18.636;2023-04-03T00:15:52;8.97;;;7.30;;
56991;SDS011;42885;49.754;18.636;2023-04-03T00:18:24;8.88;;;6.20;;
56991;SDS011;42885;49.754;18.636;2023-04-03T00:20:55;8.05;;;6.80;;
56991;SDS011;42885;49.754;18.636;2023-04-03T00:23:26;9.48;;;7.28;;
56991;SDS011;42885;49.754;18.636;2023-04-03T00:25:57;10.55;;;7.87;;
56991;SDS011;42885;49.754;18.636;2023-04-03T00:28:28;10.70;;;7.40;;
56991;SDS011;42885;49.754;18.636;2023-04-03T00:30:59;9.98;;;7.22;;
56991;SDS011;42885;49.754;18.636;2023-04-03T00:33:30;10.72;;;7.75;;
56991;SDS011;42885;49.754;18.636;2023-04-03T00:36:08;11.03;;;8.28;;
56991;SDS011;42885;49.754;18.636;2023-04-03T00:38:39;9.98;;;7.60;;
56991;SDS011;42885;49.754;18.636;2023-04-03T00:41:10;11.00;;;8.08;;
56991;SDS011;42885;49.754;18.636;2023-04-03T00:43:41;11.33;;;8.25;;
56991;SDS011;42885;49.754;18.636;2023-04-03T00:46:12;11.18;;;7.67;;
56991;SDS011;42885;49.754;18.636;2023-04-03T00:48:45;10.13;;;7.77;;
56991;SDS011;42885;49.754;18.636;2023-04-03T00:51:19;10.37;;;7.80;;
56991;SDS011;42885;49.754;18.636;2023-04-03T00:53:53;10.10;;;7.00;;
56991;SDS011;42885;49.754;18.636;2023-04-03T00:56:27;9.30;;;7.37;;
56991;SDS011;42885;49.754;18.636;2023-04-03T00:59:08;11.10;;;7.55;;
56991;SDS011;42885;49.754;18.636;2023-04-03T01:01:40;12.33;;;7.47;;
56991;SDS011;42885;49.754;18.636;2023-04-03T01:07:08;11.22;;;8.13;;
56991;SDS011;42885;49.754;18.636;2023-04-03T01:09:44;13.73;;;9.47;;
56991;SDS011;42885;49.754;18.636;2023-04-03T01:12:19;12.37;;;8.53;;
56991;SDS011;42885;49.754;18.636;2023-04-03T01:14:53;11.15;;;8.00;;
56991;SDS011;42885;49.754;18.636;2023-04-03T01:17:39;12.33;;;8.13;;
56991;SDS011;42885;49.754;18.636;2023-04-03T01:25:46;10.82;;;8.25;;
56991;SDS011;42885;49.754;18.636;2023-04-03T01:28:23;11.45;;;8.55;;
56991;SDS011;42885;49.754;18.636;2023-04-03T01:33:40;10.72;;;7.60;;
56991;SDS011;42885;49.754;18.636;2023-04-03T01:36:17;11.15;;;8.28;;
56991;SDS011;42885;49.754;18.636;2023-04-03T01:38:50;9.10;;;7.50;;
56991;SDS011;42885;49.754;18.636;2023-04-03T01:41:23;9.55;;;7.50;;
56991;SDS011;42885;49.754;18.636;2023-04-03T01:43:56;7.97;;;7.00;;
56991;SDS011;42885;49.754;18.636;2023-04-03T01:46:27;9.85;;;8.20;;
56991;SDS011;42885;49.754;18.636;2023-04-03T01:48:59;9.75;;;7.85;;
56991;SDS011;42885;49.754;18.636;2023-04-03T01:51:30;10.68;;;8.40;;
56991;SDS011;42885;49.754;18.636;2023-04-03T01:54:02;10.38;;;8.30;;
56991;SDS011;42885;49.754;18.636;2023-04-03T01:56:34;10.65;;;8.95;;
56991;SDS011;42885;49.754;18.636;2023-04-03T01:59:06;13.32;;;8.90;;
56991;SDS011;42885;49.754;18.636;2023-04-03T02:01:37;10.15;;;8.30;;
56991;SDS011;42885;49.754;18.636;2023-04-03T02:04:08;9.70;;;8.60;;
56991;SDS011;42885;49.754;18.636;2023-04-03T02:06:40;10.95;;;8.63;;
56991;SDS011;42885;49.754;18.636;2023-04-03T02:09:11;12.58;;;9.48;;
56991;SDS011;42885;49.754;18.636;2023-04-03T02:11:42;10.53;;;8.68;;
56991;SDS011;42885;49.754;18.636;2023-04-03T02:14:15;11.50;;;9.83;;
56991;SDS011;42885;49.754;18.636;2023-04-03T02:16:46;10.95;;;8.65;;
56991;SDS011;42885;49.754;18.636;2023-04-03T02:19:17;11.45;;;9.35;;
56991;SDS011;42885;49.754;18.636;2023-04-03T02:21:48;14.20;;;10.60;;
56991;SDS011;42885;49.754;18.636;2023-04-03T02:24:19;14.00;;;10.32;;
56991;SDS011;42885;49.754;18.636;2023-04-03T02:26:50;13.90;;;10.30;;
56991;SDS011;42885;49.754;18.636;2023-04-03T02:29:21;14.33;;;10.73;;
56991;SDS011;42885;49.754;18.636;2023-04-03T02:31:53;14.28;;;10.70;;
56991;SDS011;42885;49.754;18.636;2023-04-03T02:34:24;16.02;;;10.88;;
56991;SDS011;42885;49.754;18.636;2023-04-03T02:36:55;15.80;;;11.67;;
56991;SDS011;42885;49.754;18.636;2023-04-03T02:39:27;17.40;;;11.80;;
56991;SDS011;42885;49.754;18.636;2023-04-03T02:41:58;15.83;;;11.93;;
56991;SDS011;42885;49.754;18.636;2023-04-03T02:44:30;15.30;;;11.90;;
56991;SDS011;42885;49.754;18.636;2023-04-03T02:47:02;16.82;;;12.30;;
56991;SDS011;42885;49.754;18.636;2023-04-03T02:49:33;18.32;;;12.88;;
56991;SDS011;42885;49.754;18.636;2023-04-03T02:52:04;16.48;;;12.40;;
56991;SDS011;42885;49.754;18.636;2023-04-03T02:54:36;16.45;;;12.45;;
56991;SDS011;42885;49.754;18.636;2023-04-03T02:57:08;15.28;;;11.85;;
56991;SDS011;42885;49.754;18.636;2023-04-03T02:59:39;17.65;;;12.93;;
56991;SDS011;42885;49.754;18.636;2023-04-03T03:02:11;16.67;;;12.95;;
56991;SDS011;42885;49.754;18.636;2023-04-03T03:04:43;16.93;;;12.50;;
56991;SDS011;42885;49.754;18.636;2023-04-03T03:07:14;15.95;;;11.68;;
56991;SDS011;42885;49.754;18.636;2023-04-03T03:09:45;18.03;;;12.80;;
56991;SDS011;42885;49.754;18.636;2023-04-03T03:12:16;16.67;;;11.93;;
56991;SDS011;42885;49.754;18.636;2023-04-03T03:14:52;20.50;;;12.88;;
56991;SDS011;42885;49.754;18.636;2023-04-03T03:17:23;15.60;;;11.55;;
56991;SDS011;42885;49.754;18.636;2023-04-03T03:19:54;17.73;;;11.93;;
56991;SDS011;42885;49.754;18.636;2023-04-03T03:22:25;16.95;;;11.83;;
56991;SDS011;42885;49.754;18.636;2023-04-03T03:24:58;14.43;;;11.60;;
56991;SDS011;42885;49.754;18.636;2023-04-03T03:27:30;18.35;;;11.35;;
56991;SDS011;42885;49.754;18.636;2023-04-03T03:30:01;15.98;;;11.40;;
56991;SDS011;42885;49.754;18.636;2023-04-03T03:32:32;15.55;;;10.72;;
56991;SDS011;42885;49.754;18.636;2023-04-03T03:35:04;14.50;;;11.30;;
56991;SDS011;42885;49.754;18.636;2023-04-03T03:37:35;15.40;;;10.88;;
56991;SDS011;42885;49.754;18.636;2023-04-03T03:40:06;16.62;;;10.95;;
56991;SDS011;42885;49.754;18.636;2023-04-03T03:42:39;16.50;;;10.40;;
56991;SDS011;42885;49.754;18.636;2023-04-03T03:45:11;15.25;;;10.55;;
56991;SDS011;42885;49.754;18.636;2023-04-03T03:47:43;17.05;;;11.53;;
56991;SDS011;42885;49.754;18.636;2023-04-03T03:50:14;20.77;;;11.57;;
56991;SDS011;42885;49.754;18.636;2023-04-03T03:52:46;16.95;;;11.48;;
56991;SDS011;42885;49.754;18.636;2023-04-03T03:55:19;17.73;;;11.00;;
56991;SDS011;42885;49.754;18.636;2023-04-03T03:57:52;19.37;;;11.50;;
56991;SDS011;42885;49.754;18.636;2023-04-03T04:00:24;18.15;;;10.95;;
56991;SDS011;42885;49.754;18.636;2023-04-03T04:02:57;15.73;;;10.40;;
56991;SDS011;42885;49.754;18.636;2023-04-03T04:05:28;18.27;;;10.45;;
56991;SDS011;42885;49.754;18.636;2023-04-03T04:08:00;18.60;;;10.55;;
56991;SDS011;42885;49.754;18.636;2023-04-03T04:10:32;16.95;;;10.82;;
56991;SDS011;42885;49.754;18.636;2023-04-03T04:13:05;19.10;;;11.37;;
56991;SDS011;42885;49.754;18.636;2023-04-03T04:15:36;18.92;;;11.00;;
56991;SDS011;42885;49.754;18.636;2023-04-03T04:18:07;19.27;;;11.75;;
56991;SDS011;42885;49.754;18.636;2023-04-03T04:20:39;20.43;;;11.93;;
56991;SDS011;42885;49.754;18.636;2023-04-03T04:23:11;20.45;;;11.50;;
56991;SDS011;42885;49.754;18.636;2023-04-03T04:25:44;19.87;;;11.22;;
56991;SDS011;42885;49.754;18.636;2023-04-03T04:28:16;16.37;;;11.45;;
56991;SDS011;42885;49.754;18.636;2023-04-03T04:30:48;17.20;;;10.77;;
56991;SDS011;42885;49.754;18.636;2023-04-03T04:33:20;17.82;;;11.95;;
56991;SDS011;42885;49.754;18.636;2023-04-03T04:35:54;20.25;;;12.33;;
56991;SDS011;42885;49.754;18.636;2023-04-03T04:38:24;22.13;;;12.25;;
56991;SDS011;42885;49.754;18.636;2023-04-03T04:40:56;22.75;;;12.78;;
56991;SDS011;42885;49.754;18.636;2023-04-03T04:43:28;20.45;;;11.40;;
56991;SDS011;42885;49.754;18.636;2023-04-03T04:46:01;20.30;;;12.33;;
56991;SDS011;42885;49.754;18.636;2023-04-03T04:48:38;19.80;;;11.33;;
56991;SDS011;42885;49.754;18.636;2023-04-03T04:51:10;19.25;;;10.43;;
56991;SDS011;42885;49.754;18.636;2023-04-03T04:53:42;17.35;;;10.28;;
56991;SDS011;42885;49.754;18.636;2023-04-03T04:56:14;19.37;;;10.93;;
56991;SDS011;42885;49.754;18.636;2023-04-03T04:58:47;23.38;;;14.23;;
56991;SDS011;42885;49.754;18.636;2023-04-03T05:01:19;19.90;;;13.03;;
56991;SDS011;42885;49.754;18.636;2023-04-03T05:03:54;16.67;;;10.23;;
56991;SDS011;42885;49.754;18.636;2023-04-03T05:06:25;15.70;;;10.40;;
56991;SDS011;42885;49.754;18.636;2023-04-03T05:08:58;17.27;;;9.98;;
56991;SDS011;42885;49.754;18.636;2023-04-03T05:11:30;16.37;;;9.33;;
56991;SDS011;42885;49.754;18.636;2023-04-03T05:14:01;14.55;;;9.63;;
56991;SDS011;42885;49.754;18.636;2023-04-03T05:19:05;15.50;;;9.85;;
56991;SDS011;42885;49.754;18.636;2023-04-03T05:21:37;16.44;;;10.26;;
56991;SDS011;42885;49.754;18.636;2023-04-03T05:24:10;14.40;;;9.75;;
56991;SDS011;42885;49.754;18.636;2023-04-03T05:26:43;15.37;;;9.43;;
56991;SDS011;42885;49.754;18.636;2023-04-03T05:29:15;18.80;;;10.43;;
56991;SDS011;42885;49.754;18.636;2023-04-03T05:31:48;16.52;;;10.23;;
56991;SDS011;42885;49.754;18.636;2023-04-03T05:34:20;14.73;;;9.55;;
56991;SDS011;42885;49.754;18.636;2023-04-03T05:36:52;15.73;;;9.30;;
56991;SDS011;42885;49.754;18.636;2023-04-03T05:39:24;20.15;;;10.48;;
56991;SDS011;42885;49.754;18.636;2023-04-03T05:41:55;16.02;;;9.80;;
56991;SDS011;42885;49.754;18.636;2023-04-03T05:44:27;16.77;;;9.45;;
56991;SDS011;42885;49.754;18.636;2023-04-03T05:46:59;13.13;;;9.23;;
56991;SDS011;42885;49.754;18.636;2023-04-03T05:49:30;14.07;;;9.33;;
56991;SDS011;42885;49.754;18.636;2023-04-03T05:52:01;13.58;;;9.28;;
56991;SDS011;42885;49.754;18.636;2023-04-03T05:54:33;16.15;;;8.83;;
56991;SDS011;42885;49.754;18.636;2023-04-03T05:57:07;14.95;;;8.68;;
56991;SDS011;42885;49.754;18.636;2023-04-03T05:59:39;14.83;;;8.90;;
56991;SDS011;42885;49.754;18.636;2023-04-03T06:02:13;17.27;;;8.93;;
56991;SDS011;42885;49.754;18.636;2023-04-03T06:04:50;14.50;;;8.98;;
56991;SDS011;42885;49.754;18.636;2023-04-03T06:07:23;15.35;;;8.53;;
56991;SDS011;42885;49.754;18.636;2023-04-03T06:09:56;11.33;;;8.23;;
56991;SDS011;42885;49.754;18.636;2023-04-03T06:12:28;11.83;;;6.90;;
56991;SDS011;42885;49.754;18.636;2023-04-03T06:14:59;12.40;;;7.92;;
56991;SDS011;42885;49.754;18.636;2023-04-03T06:17:31;17.07;;;8.80;;
56991;SDS011;42885;49.754;18.636;2023-04-03T06:20:03;11.45;;;7.90;;
56991;SDS011;42885;49.754;18.636;2023-04-03T06:22:34;11.38;;;7.97;;
56991;SDS011;42885;49.754;18.636;2023-04-03T06:25:07;13.95;;;8.23;;
56991;SDS011;42885;49.754;18.636;2023-04-03T06:27:39;12.15;;;8.38;;
56991;SDS011;42885;49.754;18.636;2023-04-03T06:30:10;13.03;;;8.85;;
56991;SDS011;42885;49.754;18.636;2023-04-03T06:32:41;14.97;;;9.13;;
56991;SDS011;42885;49.754;18.636;2023-04-03T06:35:13;13.85;;;8.90;;
56991;SDS011;42885;49.754;18.636;2023-04-03T06:37:45;14.03;;;9.13;;
56991;SDS011;42885;49.754;18.636;2023-04-03T06:40:21;17.50;;;10.20;;
56991;SDS011;42885;49.754;18.636;2023-04-03T06:42:54;15.20;;;8.93;;
56991;SDS011;42885;49.754;18.636;2023-04-03T06:45:26;19.62;;;12.88;;
56991;SDS011;42885;49.754;18.636;2023-04-03T06:47:58;17.98;;;9.38;;
56991;SDS011;42885;49.754;18.636;2023-04-03T06:50:30;16.15;;;9.18;;
56991;SDS011;42885;49.754;18.636;2023-04-03T06:53:01;17.95;;;8.73;;
56991;SDS011;42885;49.754;18.636;2023-04-03T06:55:34;17.37;;;8.77;;
56991;SDS011;42885;49.754;18.636;2023-04-03T06:58:06;15.95;;;9.08;;
56991;SDS011;42885;49.754;18.636;2023-04-03T07:00:39;19.98;;;8.88;;
56991;SDS011;42885;49.754;18.636;2023-04-03T07:03:10;14.28;;;8.30;;
56991;SDS011;42885;49.754;18.636;2023-04-03T07:05:41;11.73;;;8.60;;
56991;SDS011;42885;49.754;18.636;2023-04-03T07:08:13;17.15;;;8.90;;
56991;SDS011;42885;49.754;18.636;2023-04-03T07:10:45;14.28;;;9.08;;
56991;SDS011;42885;49.754;18.636;2023-04-03T07:13:17;14.40;;;8.73;;
56991;SDS011;42885;49.754;18.636;2023-04-03T07:15:48;23.93;;;8.83;;
56991;SDS011;42885;49.754;18.636;2023-04-03T07:18:19;14.33;;;7.97;;
56991;SDS011;42885;49.754;18.636;2023-04-03T07:20:51;41.15;;;9.95;;
56991;SDS011;42885;49.754;18.636;2023-04-03T07:23:23;17.77;;;8.75;;
56991;SDS011;42885;49.754;18.636;2023-04-03T07:25:55;14.33;;;8.23;;
56991;SDS011;42885;49.754;18.636;2023-04-03T07:28:27;17.15;;;8.45;;
56991;SDS011;42885;49.754;18.636;2023-04-03T07:31:00;13.95;;;7.72;;
56991;SDS011;42885;49.754;18.636;2023-04-03T07:33:38;12.78;;;7.18;;
56991;SDS011;42885;49.754;18.636;2023-04-03T07:36:10;13.85;;;7.33;;
56991;SDS011;42885;49.754;18.636;2023-04-03T07:38:43;16.97;;;8.00;;
56991;SDS011;42885;49.754;18.636;2023-04-03T07:41:15;13.22;;;7.70;;
56991;SDS011;42885;49.754;18.636;2023-04-03T07:43:50;14.43;;;7.70;;
56991;SDS011;42885;49.754;18.636;2023-04-03T07:46:22;12.50;;;7.97;;
56991;SDS011;42885;49.754;18.636;2023-04-03T07:48:55;13.20;;;6.70;;
56991;SDS011;42885;49.754;18.636;2023-04-03T07:51:27;14.95;;;7.45;;
56991;SDS011;42885;49.754;18.636;2023-04-03T07:54:06;15.15;;;7.75;;
56991;SDS011;42885;49.754;18.636;2023-04-03T07:56:37;16.42;;;7.70;;
56991;SDS011;42885;49.754;18.636;2023-04-03T07:59:09;15.25;;;7.03;;
56991;SDS011;42885;49.754;18.636;2023-04-03T08:01:40;10.70;;;6.47;;
56991;SDS011;42885;49.754;18.636;2023-04-03T08:04:12;15.23;;;8.03;;
56991;SDS011;42885;49.754;18.636;2023-04-03T08:06:44;18.37;;;6.70;;
56991;SDS011;42885;49.754;18.636;2023-04-03T08:09:15;12.33;;;6.28;;
56991;SDS011;42885;49.754;18.636;2023-04-03T08:11:47;12.30;;;6.08;;
56991;SDS011;42885;49.754;18.636;2023-04-03T08:14:20;11.63;;;6.17;;
56991;SDS011;42885;49.754;18.636;2023-04-03T08:16:51;12.35;;;6.40;;
56991;SDS011;42885;49.754;18.636;2023-04-03T08:19:22;11.33;;;6.95;;
56991;SDS011;42885;49.754;18.636;2023-04-03T08:21:54;12.90;;;6.07;;
56991;SDS011;42885;49.754;18.636;2023-04-03T08:24:27;13.30;;;7.08;;
56991;SDS011;42885;49.754;18.636;2023-04-03T08:26:59;10.57;;;6.17;;
56991;SDS011;42885;49.754;18.636;2023-04-03T08:29:30;11.15;;;6.30;;
56991;SDS011;42885;49.754;18.636;2023-04-03T08:32:01;8.48;;;5.80;;
56991;SDS011;42885;49.754;18.636;2023-04-03T08:34:33;11.78;;;6.05;;
56991;SDS011;42885;49.754;18.636;2023-04-03T08:37:05;9.45;;;5.25;;
56991;SDS011;42885;49.754;18.636;2023-04-03T08:39:37;10.08;;;4.60;;
56991;SDS011;42885;49.754;18.636;2023-04-03T08:42:14;11.45;;;5.62;;
56991;SDS011;42885;49.754;18.636;2023-04-03T08:50:35;13.48;;;5.30;;
56991;SDS011;42885;49.754;18.636;2023-04-03T08:53:14;7.72;;;4.80;;
56991;SDS011;42885;49.754;18.636;2023-04-03T08:55:51;8.87;;;4.80;;
56991;SDS011;42885;49.754;18.636;2023-04-03T08:58:28;8.28;;;4.58;;
56991;SDS011;42885;49.754;18.636;2023-04-03T09:01:05;10.30;;;5.15;;
56991;SDS011;42885;49.754;18.636;2023-04-03T09:03:38;11.26;;;5.44;;
56991;SDS011;42885;49.754;18.636;2023-04-03T09:06:13;9.23;;;4.90;;
56991;SDS011;42885;49.754;18.636;2023-04-03T09:17:11;11.30;;;4.85;;
56991;SDS011;42885;49.754;18.636;2023-04-03T09:20:09;8.60;;;4.30;;
56991;SDS011;42885;49.754;18.636;2023-04-03T09:22:55;7.87;;;4.00;;
56991;SDS011;42885;49.754;18.636;2023-04-03T09:25:32;10.18;;;3.72;;
56991;SDS011;42885;49.754;18.636;2023-04-03T09:28:03;10.82;;;3.65;;
56991;SDS011;42885;49.754;18.636;2023-04-03T09:30:38;9.08;;;3.60;;
56991;SDS011;42885;49.754;18.636;2023-04-03T09:33:09;9.25;;;3.17;;
56991;SDS011;42885;49.754;18.636;2023-04-03T09:35:43;6.47;;;3.12;;
56991;SDS011;42885;49.754;18.636;2023-04-03T09:38:19;9.70;;;2.50;;
56991;SDS011;42885;49.754;18.636;2023-04-03T09:43:37;5.03;;;2.40;;
56991;SDS011;42885;49.754;18.636;2023-04-03T09:46:18;5.33;;;2.60;;
56991;SDS011;42885;49.754;18.636;2023-04-03T09:48:59;4.55;;;2.22;;
56991;SDS011;42885;49.754;18.636;2023-04-03T09:51:33;8.18;;;2.47;;
56991;SDS011;42885;49.754;18.636;2023-04-03T09:54:50;6.47;;;2.95;;
56991;SDS011;42885;49.754;18.636;2023-04-03T09:56:56;5.53;;;3.08;;
56991;SDS011;42885;49.754;18.636;2023-04-03T09:59:33;8.98;;;3.10;;
56991;SDS011;42885;49.754;18.636;2023-04-03T10:04:48;9.10;;;2.87;;
56991;SDS011;42885;49.754;18.636;2023-04-03T10:07:30;7.35;;;2.90;;
56991;SDS011;42885;49.754;18.636;2023-04-03T10:13:05;5.07;;;2.37;;
56991;SDS011;42885;49.754;18.636;2023-04-03T10:15:44;10.35;;;3.50;;
56991;SDS011;42885;49.754;18.636;2023-04-03T10:21:28;4.65;;;2.55;;
56991;SDS011;42885;49.754;18.636;2023-04-03T10:32:25;8.58;;;3.80;;
56991;SDS011;42885;49.754;18.636;2023-04-03T10:38:01;7.42;;;2.47;;
56991;SDS011;42885;49.754;18.636;2023-04-03T10:40:50;5.45;;;2.33;;
56991;SDS011;42885;49.754;18.636;2023-04-03T10:43:44;5.43;;;1.87;;
56991;SDS011;42885;49.754;18.636;2023-04-03T10:51:53;4.60;;;2.10;;
56991;SDS011;42885;49.754;18.636;2023-04-03T10:54:38;3.08;;;1.50;;
56991;SDS011;42885;49.754;18.636;2023-04-03T10:57:20;4.12;;;1.87;;
56991;SDS011;42885;49.754;18.636;2023-04-03T10:59:58;6.67;;;2.55;;
56991;SDS011;42885;49.754;18.636;2023-04-03T11:02:33;4.97;;;2.27;;
56991;SDS011;42885;49.754;18.636;2023-04-03T11:05:17;8.18;;;4.33;;
56991;SDS011;42885;49.754;18.636;2023-04-03T11:07:50;8.13;;;3.40;;
56991;SDS011;42885;49.754;18.636;2023-04-03T11:10:36;7.40;;;2.77;;
56991;SDS011;42885;49.754;18.636;2023-04-03T11:15:56;6.33;;;2.67;;
56991;SDS011;42885;49.754;18.636;2023-04-03T11:18:31;5.72;;;2.55;;
56991;SDS011;42885;49.754;18.636;2023-04-03T11:21:27;5.60;;;1.98;;
56991;SDS011;42885;49.754;18.636;2023-04-03T11:24:00;4.65;;;2.58;;
56991;SDS011;42885;49.754;18.636;2023-04-03T11:26:37;6.12;;;2.17;;
56991;SDS011;42885;49.754;18.636;2023-04-03T11:29:15;3.77;;;2.00;;
56991;SDS011;42885;49.754;18.636;2023-04-03T11:34:49;5.40;;;2.00;;
56991;SDS011;42885;49.754;18.636;2023-04-03T11:37:31;3.95;;;2.35;;
56991;SDS011;42885;49.754;18.636;2023-04-03T11:40:08;4.58;;;2.52;;
56991;SDS011;42885;49.754;18.636;2023-04-03T11:42:46;5.83;;;2.60;;
56991;SDS011;42885;49.754;18.636;2023-04-03T11:48:03;5.83;;;2.87;;
56991;SDS011;42885;49.754;18.636;2023-04-03T11:58:30;4.00;;;2.72;;
56991;SDS011;42885;49.754;18.636;2023-04-03T12:01:07;5.42;;;3.02;;
56991;SDS011;42885;49.754;18.636;2023-04-03T12:08:51;7.58;;;3.12;;
56991;SDS011;42885;49.754;18.636;2023-04-03T12:11:30;4.90;;;2.85;;
56991;SDS011;42885;49.754;18.636;2023-04-03T12:14:04;4.95;;;2.60;;
56991;SDS011;42885;49.754;18.636;2023-04-03T12:19:32;5.75;;;2.98;;
56991;SDS011;42885;49.754;18.636;2023-04-03T12:22:11;7.17;;;3.92;;
56991;SDS011;42885;49.754;18.636;2023-04-03T12:24:45;8.48;;;3.50;;
56991;SDS011;42885;49.754;18.636;2023-04-03T12:30:07;5.22;;;2.62;;
56991;SDS011;42885;49.754;18.636;2023-04-03T12:35:17;5.03;;;2.50;;
56991;SDS011;42885;49.754;18.636;2023-04-03T12:47:00;6.05;;;2.58;;
56991;SDS011;42885;49.754;18.636;2023-04-03T12:49:35;4.57;;;2.70;;
56991;SDS011;42885;49.754;18.636;2023-04-03T12:52:17;4.92;;;2.58;;
56991;SDS011;42885;49.754;18.636;2023-04-03T12:54:53;5.28;;;2.60;;
56991;SDS011;42885;49.754;18.636;2023-04-03T12:57:26;5.97;;;3.08;;
56991;SDS011;42885;49.754;18.636;2023-04-03T12:59:58;5.23;;;3.03;;
56991;SDS011;42885;49.754;18.636;2023-04-03T13:02:30;6.08;;;2.58;;
56991;SDS011;42885;49.754;18.636;2023-04-03T13:05:07;5.42;;;2.67;;
56991;SDS011;42885;49.754;18.636;2023-04-03T13:07:40;4.37;;;2.65;;
56991;SDS011;42885;49.754;18.636;2023-04-03T13:12:50;6.42;;;2.95;;
56991;SDS011;42885;49.754;18.636;2023-04-03T13:15:27;4.92;;;3.12;;
56991;SDS011;42885;49.754;18.636;2023-04-03T13:18:00;5.03;;;2.77;;
56991;SDS011;42885;49.754;18.636;2023-04-03T13:20:32;5.92;;;2.95;;
56991;SDS011;42885;49.754;18.636;2023-04-03T13:23:07;4.65;;;2.60;;
56991;SDS011;42885;49.754;18.636;2023-04-03T13:25:41;3.00;;;2.05;;
56991;SDS011;42885;49.754;18.636;2023-04-03T13:28:16;4.50;;;2.57;;
56991;SDS011;42885;49.754;18.636;2023-04-03T13:31:03;6.00;;;2.33;;
56991;SDS011;42885;49.754;18.636;2023-04-03T13:33:52;5.20;;;2.70;;
56991;SDS011;42885;49.754;18.636;2023-04-03T13:37:11;7.40;;;2.87;;
56991;SDS011;42885;49.754;18.636;2023-04-03T13:41:51;6.33;;;3.10;;
56991;SDS011;42885;49.754;18.636;2023-04-03T13:47:15;4.12;;;2.47;;
56991;SDS011;42885;49.754;18.636;2023-04-03T13:50:12;4.50;;;2.15;;
56991;SDS011;42885;49.754;18.636;2023-04-03T13:52:59;5.80;;;2.58;;
56991;SDS011;42885;49.754;18.636;2023-04-03T13:55:34;4.67;;;2.87;;
56991;SDS011;42885;49.754;18.636;2023-04-03T14:00:49;4.25;;;2.60;;
56991;SDS011;42885;49.754;18.636;2023-04-03T14:03:25;5.60;;;2.83;;
56991;SDS011;42885;49.754;18.636;2023-04-03T14:06:07;6.55;;;3.05;;
56991;SDS011;42885;49.754;18.636;2023-04-03T14:08:44;6.78;;;3.10;;
56991;SDS011;42885;49.754;18.636;2023-04-03T14:11:19;9.35;;;3.33;;
56991;SDS011;42885;49.754;18.636;2023-04-03T14:13:55;8.38;;;3.30;;
56991;SDS011;42885;49.754;18.636;2023-04-03T14:16:32;6.53;;;3.17;;
56991;SDS011;42885;49.754;18.636;2023-04-03T14:19:05;5.72;;;3.02;;
56991;SDS011;42885;49.754;18.636;2023-04-03T14:21:37;6.47;;;2.92;;
56991;SDS011;42885;49.754;18.636;2023-04-03T14:24:08;4.30;;;2.95;;
56991;SDS011;42885;49.754;18.636;2023-04-03T14:26:40;9.83;;;5.63;;
56991;SDS011;42885;49.754;18.636;2023-04-03T14:29:11;21.70;;;10.75;;
56991;SDS011;42885;49.754;18.636;2023-04-03T14:31:44;9.20;;;4.70;;
56991;SDS011;42885;49.754;18.636;2023-04-03T14:34:16;6.55;;;3.00;;
56991;SDS011;42885;49.754;18.636;2023-04-03T14:36:48;7.20;;;2.97;;
56991;SDS011;42885;49.754;18.636;2023-04-03T14:39:19;5.72;;;3.10;;
56991;SDS011;42885;49.754;18.636;2023-04-03T14:41:50;7.95;;;3.55;;
56991;SDS011;42885;49.754;18.636;2023-04-03T14:44:22;7.58;;;3.65;;
56991;SDS011;42885;49.754;18.636;2023-04-03T14:46:53;7.05;;;3.90;;
56991;SDS011;42885;49.754;18.636;2023-04-03T14:49:26;8.60;;;3.60;;
56991;SDS011;42885;49.754;18.636;2023-04-03T14:51:58;18.17;;;11.53;;
56991;SDS011;42885;49.754;18.636;2023-04-03T14:54:29;16.37;;;9.83;;
56991;SDS011;42885;49.754;18.636;2023-04-03T14:57:01;6.45;;;3.65;;
56991;SDS011;42885;49.754;18.636;2023-04-03T14:59:33;11.08;;;4.20;;
56991;SDS011;42885;49.754;18.636;2023-04-03T15:02:21;8.43;;;3.62;;
56991;SDS011;42885;49.754;18.636;2023-04-03T15:04:48;6.00;;;3.37;;
56991;SDS011;42885;49.754;18.636;2023-04-03T15:07:21;5.57;;;3.53;;
56991;SDS011;42885;49.754;18.636;2023-04-03T15:09:55;11.07;;;4.37;;
56991;SDS011;42885;49.754;18.636;2023-04-03T15:12:27;7.37;;;3.50;;
56991;SDS011;42885;49.754;18.636;2023-04-03T15:15:00;24.98;;;15.30;;
56991;SDS011;42885;49.754;18.636;2023-04-03T15:17:32;27.27;;;16.60;;
56991;SDS011;42885;49.754;18.636;2023-04-03T15:20:14;10.95;;;4.53;;
56991;SDS011;42885;49.754;18.636;2023-04-03T15:22:47;7.77;;;4.00;;
56991;SDS011;42885;49.754;18.636;2023-04-03T15:25:18;8.30;;;4.58;;
56991;SDS011;42885;49.754;18.636;2023-04-03T15:27:50;7.30;;;4.03;;
56991;SDS011;42885;49.754;18.636;2023-04-03T15:30:23;6.05;;;3.72;;
56991;SDS011;42885;49.754;18.636;2023-04-03T15:32:54;9.43;;;4.00;;
56991;SDS011;42885;49.754;18.636;2023-04-03T15:35:25;12.50;;;3.60;;
56991;SDS011;42885;49.754;18.636;2023-04-03T15:37:57;9.28;;;3.45;;
56991;SDS011;42885;49.754;18.636;2023-04-03T15:40:29;6.47;;;3.30;;
56991;SDS011;42885;49.754;18.636;2023-04-03T15:43:00;6.47;;;3.22;;
56991;SDS011;42885;49.754;18.636;2023-04-03T15:45:33;7.80;;;3.62;;
56991;SDS011;42885;49.754;18.636;2023-04-03T15:48:07;7.45;;;3.30;;
56991;SDS011;42885;49.754;18.636;2023-04-03T15:50:40;8.93;;;4.62;;
56991;SDS011;42885;49.754;18.636;2023-04-03T15:53:11;8.35;;;3.42;;
56991;SDS011;42885;49.754;18.636;2023-04-03T15:55:43;7.35;;;3.70;;
56991;SDS011;42885;49.754;18.636;2023-04-03T15:58:14;5.62;;;3.00;;
56991;SDS011;42885;49.754;18.636;2023-04-03T16:00:45;7.15;;;3.58;;
56991;SDS011;42885;49.754;18.636;2023-04-03T16:03:18;5.75;;;3.45;;
56991;SDS011;42885;49.754;18.636;2023-04-03T16:05:52;11.55;;;4.33;;
56991;SDS011;42885;49.754;18.636;2023-04-03T16:08:27;8.90;;;4.22;;
56991;SDS011;42885;49.754;18.636;2023-04-03T16:10:59;9.10;;;3.70;;
56991;SDS011;42885;49.754;18.636;2023-04-03T16:13:31;8.58;;;4.25;;
56991;SDS011;42885;49.754;18.636;2023-04-03T16:16:03;7.95;;;4.08;;
56991;SDS011;42885;49.754;18.636;2023-04-03T16:18:35;8.60;;;3.70;;
56991;SDS011;42885;49.754;18.636;2023-04-03T16:21:07;11.28;;;4.42;;
56991;SDS011;42885;49.754;18.636;2023-04-03T16:23:39;7.83;;;3.80;;
56991;SDS011;42885;49.754;18.636;2023-04-03T16:26:11;8.85;;;3.85;;
56991;SDS011;42885;49.754;18.636;2023-04-03T16:28:43;7.80;;;3.95;;
56991;SDS011;42885;49.754;18.636;2023-04-03T16:31:14;7.58;;;4.10;;
56991;SDS011;42885;49.754;18.636;2023-04-03T16:33:46;42.27;;;22.82;;
56991;SDS011;42885;49.754;18.636;2023-04-03T16:36:17;4.95;;;3.33;;
56991;SDS011;42885;49.754;18.636;2023-04-03T16:38:50;5.55;;;3.08;;
56991;SDS011;42885;49.754;18.636;2023-04-03T16:41:23;6.40;;;3.30;;
56991;SDS011;42885;49.754;18.636;2023-04-03T16:43:55;6.60;;;3.72;;
56991;SDS011;42885;49.754;18.636;2023-04-03T16:46:27;117.57;;;79.92;;